Time;durP1;ratioP1;P1;durP2;ratioP2;P2;SDS_P1;SDS_P2;PMS_P1;PMS_P2;Temp;Humidity;BMP_temperature;BMP_pressure;BME280_temperature;BME280_humidity;BME280_pressure;Samples;Min_cycle;Max_cycle;Signal;HPM_P1;HPM_P2
2021/12/21 00:02:20;;;;;;;14.27;7.10;;;-0.90;99.90;;;;;;5078208;28;20119;-62
2021/12/21 00:04:46;;;;;;;19.20;7.77;;;-0.90;99.90;;;;;;5072002;28;20040;-63
2021/12/21 00:07:12;;;;;;;13.10;6.83;;;-1.00;99.90;;;;;;5081701;28;20382;-63
2021/12/21 00:09:37;;;;;;;11.90;7.67;;;-1.00;99.90;;;;;;5084776;28;20039;-63
2021/12/21 00:12:03;;;;;;;9.13;6.80;;;-1.00;99.90;;;;;;5078175;28;20046;-62
2021/12/21 00:14:50;;;;;;;15.35;7.50;;;-1.00;99.90;;;;;;5078730;28;20055;-62
2021/12/21 00:17:41;;;;;;;14.20;8.25;;;-1.00;99.90;;;;;;5078082;28;20089;-63
2021/12/21 00:25:20;;;;;;;12.52;6.97;;;-1.00;99.90;;;;;;5076254;28;20044;-62
2021/12/21 00:27:48;;;;;;;16.00;8.35;;;-1.00;99.90;;;;;;5089211;28;20055;-62
2021/12/21 00:30:15;;;;;;;13.82;8.52;;;-1.00;99.90;;;;;;5071167;28;20115;-63
2021/12/21 00:32:41;;;;;;;;;;;-1.00;99.90;;;;;;5090435;28;20036;-62
2021/12/21 00:35:07;;;;;;;14.68;8.38;;;-1.00;99.90;;;;;;5073515;28;19995;-62
2021/12/21 00:37:33;;;;;;;14.07;8.70;;;-1.00;99.90;;;;;;5070378;28;20083;-62
2021/12/21 00:39:59;;;;;;;11.03;6.63;;;-1.00;99.90;;;;;;5083098;28;20036;-62
2021/12/21 00:42:24;;;;;;;15.77;7.23;;;-1.00;99.90;;;;;;5066901;28;20037;-62
2021/12/21 00:44:50;;;;;;;15.23;8.27;;;-1.00;99.90;;;;;;5082533;28;20040;-62
2021/12/21 00:47:16;;;;;;;19.13;8.23;;;-1.00;99.90;;;;;;5077609;28;20166;-62
2021/12/21 00:49:46;;;;;;;14.63;7.55;;;-1.10;99.90;;;;;;5088611;28;20909;-62
2021/12/21 00:52:15;;;;;;;20.80;8.18;;;-1.10;99.90;;;;;;5071317;28;20098;-63
2021/12/21 00:54:41;;;;;;;16.77;7.75;;;-1.10;99.90;;;;;;5078569;28;20058;-62
2021/12/21 00:57:08;;;;;;;15.75;7.70;;;-1.10;99.90;;;;;;5068542;28;20041;-62
2021/12/21 00:59:34;;;;;;;11.95;7.60;;;-1.10;99.90;;;;;;5077514;28;20032;-63
2021/12/21 01:02:00;;;;;;;11.80;7.47;;;-1.10;99.90;;;;;;5076501;28;20055;-62
2021/12/21 01:04:35;;;;;;;13.32;7.45;;;-1.10;99.90;;;;;;5079371;28;20040;-62
2021/12/21 01:07:08;;;;;;;14.02;8.00;;;-1.10;99.90;;;;;;5093357;28;20032;-62
2021/12/21 01:12:11;;;;;;;14.57;9.00;;;-1.10;99.90;;;;;;5083735;28;20059;-62
2021/12/21 01:17:18;;;;;;;14.25;7.47;;;-1.20;99.90;;;;;;5075276;28;20505;-62
2021/12/21 01:19:50;;;;;;;14.55;8.63;;;-1.20;99.90;;;;;;5087311;28;20539;-63
2021/12/21 01:22:25;;;;;;;12.98;7.30;;;-1.20;99.90;;;;;;5082355;28;20045;-62
2021/12/21 01:25:12;;;;;;;14.77;7.15;;;-1.20;99.90;;;;;;5077717;28;20064;-62
2021/12/21 01:30:19;;;;;;;12.23;7.50;;;-1.30;99.90;;;;;;5090773;28;20564;-62
2021/12/21 01:35:37;;;;;;;13.15;7.57;;;-1.30;99.90;;;;;;5081876;28;20052;-62
2021/12/21 01:38:53;;;;;;;13.40;8.25;;;-1.30;99.90;;;;;;5074820;28;20245;-62
2021/12/21 01:44:04;;;;;;;12.23;7.30;;;-1.30;99.90;;;;;;5089354;28;20385;-62
2021/12/21 01:51:41;;;;;;;9.88;5.70;;;-1.30;99.90;;;;;;5079592;28;20072;-62
2021/12/21 01:54:07;;;;;;;15.10;6.77;;;-1.40;99.90;;;;;;5083089;28;20064;-62
2021/12/21 01:56:33;;;;;;;16.93;9.47;;;-1.40;99.90;;;;;;5079949;28;20036;-62
2021/12/21 01:58:58;;;;;;;14.13;7.00;;;-1.40;99.90;;;;;;5085027;28;20039;-62
2021/12/21 02:01:26;;;;;;;14.90;7.87;;;-1.50;99.90;;;;;;5073285;28;20048;-62
2021/12/21 02:03:52;;;;;;;16.25;7.28;;;-1.40;99.90;;;;;;5082618;28;20032;-62
2021/12/21 02:06:28;;;;;;;15.32;8.80;;;-1.40;99.90;;;;;;5073106;28;20041;-62
2021/12/21 02:08:54;;;;;;;11.35;6.18;;;-1.40;99.90;;;;;;5085587;28;20086;-62
2021/12/21 02:11:21;;;;;;;9.43;5.32;;;-1.40;99.90;;;;;;5078490;28;20040;-62
2021/12/21 02:13:49;;;;;;;12.90;4.30;;;-1.40;99.90;;;;;;5088156;28;20426;-62
2021/12/21 02:16:37;;;;;;;6.97;3.60;;;-1.40;99.90;;;;;;5081125;28;20044;-62
2021/12/21 02:19:09;;;;;;;7.93;4.20;;;-1.40;99.90;;;;;;5085136;28;20120;-62
2021/12/21 02:21:42;;;;;;;5.95;4.20;;;-1.50;99.90;;;;;;5085268;28;20074;-62
2021/12/21 02:24:14;;;;;;;7.95;4.65;;;-1.50;99.90;;;;;;5085454;28;20079;-62
2021/12/21 02:26:46;;;;;;;6.20;3.83;;;-1.50;99.90;;;;;;5090263;28;20035;-62
2021/12/21 02:29:16;;;;;;;6.07;3.80;;;-1.50;99.90;;;;;;5088930;28;20123;-62
2021/12/21 02:31:49;;;;;;;5.95;3.75;;;-1.50;99.90;;;;;;5075247;28;20396;-63
2021/12/21 02:34:15;;;;;;;5.72;3.63;;;-1.50;99.90;;;;;;5077590;28;20040;-62
2021/12/21 02:36:42;;;;;;;;;;;-1.60;99.90;;;;;;5087830;28;20044;-62
2021/12/21 02:39:08;;;;;;;9.00;5.38;;;-1.60;99.90;;;;;;5090916;28;19916;-62
2021/12/21 02:41:36;;;;;;;9.07;4.80;;;-1.60;99.90;;;;;;5073117;28;20493;-62
2021/12/21 02:44:02;;;;;;;10.73;6.97;;;-1.60;99.90;;;;;;5074318;28;20044;-62
2021/12/21 02:46:27;;;;;;;9.50;5.82;;;-1.70;99.90;;;;;;5092087;28;20518;-63
2021/12/21 02:48:54;;;;;;;18.33;6.57;;;-1.60;99.90;;;;;;5083400;28;20024;-63
2021/12/21 02:51:19;;;;;;;10.32;5.90;;;-1.60;99.90;;;;;;5072506;28;20119;-63
2021/12/21 02:53:46;;;;;;;9.87;5.67;;;-1.70;99.90;;;;;;5091778;28;20123;-63
2021/12/21 02:56:12;;;;;;;10.15;6.28;;;-1.70;99.90;;;;;;5089069;28;20036;-63
2021/12/21 02:58:38;;;;;;;12.25;6.93;;;-1.80;99.90;;;;;;5092337;28;20059;-63
2021/12/21 03:01:06;;;;;;;18.65;9.43;;;-1.80;99.90;;;;;;5074674;28;20597;-63
2021/12/21 03:03:33;;;;;;;9.45;6.40;;;-1.80;99.90;;;;;;5088687;28;20040;-62
2021/12/21 03:05:59;;;;;;;16.75;8.65;;;-1.80;99.90;;;;;;5082490;28;20033;-61
2021/12/21 03:08:36;;;;;;;11.70;7.38;;;-1.80;99.90;;;;;;5072634;28;20385;-62
2021/12/21 03:11:25;;;;;;;19.40;8.02;;;-1.90;99.90;;;;;;5072992;28;20539;-63
2021/12/21 03:14:03;;;;;;;16.88;8.05;;;-1.80;99.90;;;;;;5054100;28;20079;-60
2021/12/21 03:16:30;;;;;;;12.93;7.57;;;-1.80;99.90;;;;;;5082655;28;20040;-62
2021/12/21 03:18:57;;;;;;;12.40;7.68;;;-1.80;99.90;;;;;;5090038;28;20085;-63
2021/12/21 03:21:23;;;;;;;17.58;8.98;;;-1.80;99.90;;;;;;5077208;28;20489;-62
2021/12/21 03:23:49;;;;;;;16.98;9.60;;;-1.80;99.90;;;;;;5079306;28;20044;-62
2021/12/21 03:26:14;;;;;;;20.02;9.38;;;-1.80;99.90;;;;;;5086015;28;20411;-62
2021/12/21 03:28:40;;;;;;;13.30;9.80;;;-1.80;99.90;;;;;;5091147;28;20047;-62
2021/12/21 03:31:06;;;;;;;20.73;8.70;;;-1.80;99.90;;;;;;5077727;28;20032;-60
2021/12/21 03:33:32;;;;;;;23.10;7.75;;;-1.80;99.90;;;;;;5089883;28;20559;-62
2021/12/21 03:36:00;;;;;;;17.25;8.10;;;-1.80;99.90;;;;;;5088705;28;20040;-62
2021/12/21 03:38:27;;;;;;;18.10;9.10;;;-1.90;99.90;;;;;;5090159;28;20050;-63
2021/12/21 03:40:54;;;;;;;16.27;10.05;;;-1.90;99.90;;;;;;5083350;28;20051;-62
2021/12/21 03:43:20;;;;;;;15.63;10.82;;;-1.90;99.90;;;;;;5069700;28;20084;-62
2021/12/21 03:45:55;;;;;;;20.27;11.32;;;-1.90;99.90;;;;;;5068782;28;20345;-62
2021/12/21 03:48:21;;;;;;;25.88;12.85;;;-1.90;99.90;;;;;;5059402;28;20441;-60
2021/12/21 03:50:46;;;;;;;19.13;9.73;;;-1.90;99.90;;;;;;5078584;28;20032;-62
2021/12/21 03:53:12;;;;;;;15.90;8.77;;;-1.90;99.90;;;;;;5090769;28;20040;-63
2021/12/21 03:55:38;;;;;;;12.77;9.03;;;-1.90;99.90;;;;;;5088705;28;20034;-62
2021/12/21 03:58:03;;;;;;;19.47;9.17;;;-1.90;99.90;;;;;;5089442;28;20067;-61
2021/12/21 04:00:29;;;;;;;12.43;7.87;;;-1.90;99.90;;;;;;5086493;28;20068;-63
2021/12/21 04:02:55;;;;;;;23.40;9.13;;;-1.90;99.90;;;;;;5086357;28;20028;-63
2021/12/21 04:05:21;;;;;;;13.07;7.72;;;-1.90;99.90;;;;;;5086834;28;20074;-63
2021/12/21 04:07:46;;;;;;;12.80;7.20;;;-1.90;99.90;;;;;;5088862;28;20554;-63
2021/12/21 04:10:12;;;;;;;21.87;8.57;;;-1.90;99.90;;;;;;5088241;28;20328;-63
2021/12/21 04:12:38;;;;;;;14.77;7.60;;;-1.90;99.90;;;;;;5070476;28;20040;-62
2021/12/21 04:15:06;;;;;;;16.95;7.80;;;-2.00;99.90;;;;;;5070667;28;20386;-63
2021/12/21 04:17:32;;;;;;;11.18;8.02;;;-1.90;99.90;;;;;;5072276;28;20393;-63
2021/12/21 04:19:58;;;;;;;14.43;7.27;;;-2.00;99.90;;;;;;5070664;28;20037;-64
2021/12/21 04:22:23;;;;;;;14.33;7.77;;;-1.90;99.90;;;;;;5087528;28;20390;-62
2021/12/21 04:24:49;;;;;;;11.43;8.47;;;-1.90;99.90;;;;;;5081803;28;20566;-63
2021/12/21 04:27:16;;;;;;;10.23;7.33;;;-2.00;99.90;;;;;;5082907;28;20039;-63
2021/12/21 04:29:41;;;;;;;;;;;-2.00;99.90;;;;;;5076221;28;20089;-61
2021/12/21 04:32:07;;;;;;;12.77;7.97;;;-2.00;99.90;;;;;;5081903;28;20007;-63
2021/12/21 04:34:34;;;;;;;13.30;7.35;;;-2.00;99.90;;;;;;5076970;28;20138;-63
2021/12/21 04:36:59;;;;;;;11.00;7.13;;;-2.00;99.90;;;;;;5070250;28;20075;-63
2021/12/21 04:39:54;;;;;;;19.30;7.93;;;-2.00;99.90;;;;;;5070638;28;20068;-63
2021/12/21 04:42:11;;;;;;;13.43;7.72;;;-2.00;99.90;;;;;;5070005;28;20141;-63
2021/12/21 04:44:37;;;;;;;13.97;7.70;;;-2.00;99.90;;;;;;5077508;28;20049;-63
2021/12/21 04:47:03;;;;;;;11.83;7.90;;;-2.00;99.90;;;;;;5079594;28;20032;-63
2021/12/21 04:49:28;;;;;;;12.07;6.97;;;-2.00;99.90;;;;;;5078327;28;20274;-63
2021/12/21 04:51:54;;;;;;;14.97;7.57;;;-2.10;99.90;;;;;;5076669;28;20037;-63
2021/12/21 04:54:20;;;;;;;12.53;9.03;;;-2.10;99.90;;;;;;5076590;28;20037;-63
2021/12/21 04:56:45;;;;;;;11.63;7.65;;;-2.10;99.90;;;;;;5089492;28;20496;-63
2021/12/21 04:59:11;;;;;;;16.13;8.90;;;-2.10;99.90;;;;;;5084446;28;20040;-63
2021/12/21 05:01:37;;;;;;;13.77;7.33;;;-2.10;99.90;;;;;;5082132;28;20039;-62
2021/12/21 05:04:02;;;;;;;13.87;7.93;;;-2.10;99.90;;;;;;5073066;28;20044;-63
2021/12/21 05:06:30;;;;;;;12.43;6.30;;;-2.10;99.90;;;;;;5088204;28;20043;-63
2021/12/21 05:11:51;;;;;;;14.13;7.05;;;-2.20;99.90;;;;;;5052417;28;20404;-63
2021/12/21 05:14:17;;;;;;;13.90;7.78;;;-2.10;99.90;;;;;;5073193;28;20492;-63
2021/12/21 05:16:42;;;;;;;9.48;6.80;;;-2.20;99.90;;;;;;5078339;28;20102;-63
2021/12/21 05:19:08;;;;;;;13.13;7.03;;;-2.20;99.90;;;;;;5070670;28;20131;-63
2021/12/21 05:21:33;;;;;;;21.10;6.63;;;-2.10;99.90;;;;;;5069875;28;20036;-63
2021/12/21 05:23:59;;;;;;;12.90;7.87;;;-2.10;99.90;;;;;;5074389;28;20519;-62
2021/12/21 05:26:25;;;;;;;11.70;6.37;;;-2.10;99.90;;;;;;5070878;28;20041;-63
2021/12/21 05:28:51;;;;;;;15.45;7.78;;;-2.20;99.90;;;;;;5079562;28;20499;-63
2021/12/21 05:31:17;;;;;;;13.82;7.60;;;-2.20;99.90;;;;;;5083118;28;20035;-63
2021/12/21 05:33:43;;;;;;;14.00;6.87;;;-2.10;99.90;;;;;;5067824;28;20401;-63
2021/12/21 05:36:09;;;;;;;11.80;7.00;;;-2.20;99.90;;;;;;5085388;28;20416;-62
2021/12/21 05:38:35;;;;;;;15.27;7.27;;;-2.10;99.90;;;;;;5080721;28;20032;-63
2021/12/21 05:41:05;;;;;;;11.27;7.70;;;-2.10;99.90;;;;;;5081683;28;20066;-63
2021/12/21 05:43:31;;;;;;;13.63;7.35;;;-2.20;99.90;;;;;;5087745;28;20054;-62
2021/12/21 05:45:57;;;;;;;13.57;8.10;;;-2.20;99.90;;;;;;5074759;28;20040;-62
2021/12/21 05:48:22;;;;;;;16.05;7.72;;;-2.20;99.90;;;;;;5087464;28;20040;-62
2021/12/21 05:50:48;;;;;;;14.40;7.57;;;-2.20;99.90;;;;;;5091656;28;20028;-62
2021/12/21 05:53:13;;;;;;;11.73;6.80;;;-2.20;99.90;;;;;;5085463;28;20114;-62
2021/12/21 05:55:39;;;;;;;9.73;7.20;;;-2.20;99.90;;;;;;5073396;28;20044;-62
2021/12/21 05:58:06;;;;;;;11.82;8.35;;;-2.20;99.90;;;;;;5087710;28;20101;-63
2021/12/21 06:00:34;;;;;;;10.57;7.30;;;-2.30;99.90;;;;;;5089238;28;20036;-62
2021/12/21 06:03:00;;;;;;;12.05;7.28;;;-2.30;99.90;;;;;;5086710;28;20097;-62
2021/12/21 06:05:26;;;;;;;12.70;9.02;;;-2.30;99.90;;;;;;5093247;28;20040;-63
2021/12/21 06:07:53;;;;;;;16.10;8.80;;;-2.30;99.90;;;;;;5083971;28;20028;-61
2021/12/21 06:10:41;;;;;;;14.07;8.25;;;-2.20;99.90;;;;;;5093174;28;20135;-62
2021/12/21 06:27:13;;;;;;;14.95;7.55;;;-2.30;99.90;;;;;;5063799;28;20045;-62
2021/12/21 06:29:39;;;;;;;15.80;7.80;;;-2.30;99.90;;;;;;5073047;28;20036;-62
2021/12/21 06:32:05;;;;;;;13.95;10.07;;;-2.40;99.90;;;;;;5081096;28;20048;-62
2021/12/21 06:34:31;;;;;;;20.80;10.23;;;-2.40;99.90;;;;;;5072802;28;20063;-62
2021/12/21 06:36:56;;;;;;;13.43;10.07;;;-2.40;99.90;;;;;;5082745;28;20032;-62
2021/12/21 06:39:22;;;;;;;20.52;11.00;;;-2.40;99.90;;;;;;5071456;28;20044;-60
2021/12/21 06:41:48;;;;;;;17.75;10.95;;;-2.40;99.90;;;;;;5094084;28;20056;-62
2021/12/21 06:44:16;;;;;;;13.60;9.00;;;-2.40;99.90;;;;;;5089636;28;20051;-62
2021/12/21 06:51:52;;;;;;;19.25;10.48;;;-2.40;99.90;;;;;;5072326;28;20408;-62
2021/12/21 06:54:19;;;;;;;17.73;9.27;;;-2.30;99.90;;;;;;5071888;28;20139;-61
2021/12/21 06:56:45;;;;;;;18.00;9.90;;;-2.40;99.90;;;;;;5088426;28;20036;-62
2021/12/21 06:59:11;;;;;;;17.63;9.60;;;-2.40;99.90;;;;;;5091734;28;20661;-62
2021/12/21 07:01:39;;;;;;;16.03;10.07;;;-2.40;99.90;;;;;;5072162;28;20297;-62
2021/12/21 07:04:07;;;;;;;19.02;10.25;;;-2.40;99.90;;;;;;5061704;28;20823;-62
2021/12/21 07:06:37;;;;;;;19.38;9.65;;;-2.50;99.90;;;;;;5071870;28;20028;-62
2021/12/21 07:09:12;;;;;;;14.85;9.43;;;-2.50;99.90;;;;;;5072021;28;20105;-61
2021/12/21 07:19:33;;;;;;;17.95;10.05;;;-2.50;99.90;;;;;;5078193;28;20048;-63
2021/12/21 07:21:59;;;;;;;16.63;9.35;;;-2.50;99.90;;;;;;5071479;28;20463;-63
2021/12/21 07:24:25;;;;;;;16.77;10.25;;;-2.50;99.90;;;;;;5069804;28;20493;-62
2021/12/21 07:26:52;;;;;;;17.50;10.45;;;-2.60;99.90;;;;;;5071581;28;20040;-62
2021/12/21 07:29:17;;;;;;;18.95;10.10;;;-2.50;99.90;;;;;;5070626;28;20036;-62
2021/12/21 07:31:44;;;;;;;13.85;8.90;;;-2.60;99.90;;;;;;5071465;28;20043;-64
2021/12/21 07:34:09;;;;;;;14.68;10.50;;;-2.50;99.90;;;;;;5072039;28;20378;-62
2021/12/21 07:36:35;;;;;;;16.33;10.03;;;-2.50;99.90;;;;;;5073457;28;20488;-62
2021/12/21 07:39:03;;;;;;;22.30;10.00;;;-2.50;99.90;;;;;;5069165;28;20040;-63
2021/12/21 07:41:29;;;;;;;11.45;8.23;;;-2.50;99.90;;;;;;5079710;28;20423;-63
2021/12/21 07:43:55;;;;;;;17.37;11.43;;;-2.40;99.90;;;;;;5087742;28;20036;-63
2021/12/21 07:46:20;;;;;;;29.07;12.20;;;-2.40;99.90;;;;;;5083174;28;20181;-63
2021/12/21 07:48:46;;;;;;;19.07;11.67;;;-2.40;99.90;;;;;;5073214;28;20029;-62
2021/12/21 07:51:12;;;;;;;26.17;12.27;;;-2.40;99.90;;;;;;5071992;28;20443;-62
2021/12/21 07:53:38;;;;;;;31.73;13.63;;;-2.40;99.90;;;;;;5070328;28;20058;-62
2021/12/21 07:56:04;;;;;;;32.22;14.73;;;-2.30;99.90;;;;;;5066071;28;20040;-62
2021/12/21 07:58:30;;;;;;;27.25;14.13;;;-2.30;99.90;;;;;;5070910;28;20036;-62
2021/12/21 08:00:57;;;;;;;30.13;11.82;;;-2.20;99.90;;;;;;5086903;28;20557;-62
2021/12/21 08:03:23;;;;;;;29.60;14.15;;;-2.10;99.90;;;;;;5070761;28;20028;-62
2021/12/21 08:05:52;;;;;;;28.70;14.10;;;-2.00;99.90;;;;;;5066063;28;20049;-62
2021/12/21 08:08:21;;;;;;;33.25;15.65;;;-2.00;99.90;;;;;;5071404;28;20054;-62
2021/12/21 08:11:07;;;;;;;33.75;15.20;;;-1.80;99.90;;;;;;5076023;28;20091;-62
2021/12/21 08:13:33;;;;;;;27.00;13.27;;;-1.70;99.90;;;;;;5077554;28;20051;-58
2021/12/21 08:15:59;;;;;;;24.10;15.55;;;-1.60;99.90;;;;;;5078801;28;20044;-61
2021/12/21 08:18:24;;;;;;;29.47;13.83;;;-1.30;99.90;;;;;;5060867;28;20032;-60
2021/12/21 08:20:50;;;;;;;28.27;13.03;;;-1.00;99.90;;;;;;5061261;28;20887;-61
2021/12/21 08:23:16;;;;;;;40.73;13.60;;;-0.60;99.90;;;;;;5057751;28;20113;-61
2021/12/21 08:25:41;;;;;;;24.33;11.07;;;0.00;99.90;;;;;;5064044;28;20032;-61
2021/12/21 08:28:07;;;;;;;15.63;9.73;;;0.40;99.90;;;;;;5062709;28;20040;-62
2021/12/21 08:30:33;;;;;;;23.60;13.13;;;1.00;99.90;;;;;;5062304;28;20496;-61
2021/12/21 08:32:59;;;;;;;15.38;9.07;;;1.60;99.90;;;;;;5068772;28;20415;-62
2021/12/21 08:35:25;;;;;;;14.37;7.23;;;2.20;99.90;;;;;;5065778;28;20127;-61
2021/12/21 08:37:52;;;;;;;11.63;7.35;;;2.80;99.90;;;;;;5065232;28;20275;-61
2021/12/21 08:40:19;;;;;;;13.75;8.02;;;3.40;99.50;;;;;;5064806;28;20052;-62
2021/12/21 08:42:47;;;;;;;18.42;6.82;;;4.10;98.90;;;;;;5063929;28;20044;-63
2021/12/21 08:45:13;;;;;;;8.75;6.95;;;4.70;96.90;;;;;;5064459;28;20060;-62
2021/12/21 08:47:39;;;;;;;8.75;6.10;;;5.20;95.50;;;;;;5056150;28;20403;-61
2021/12/21 08:50:07;;;;;;;7.45;5.53;;;5.70;94.40;;;;;;5065398;28;20075;-62
2021/12/21 08:52:35;;;;;;;11.48;7.50;;;6.30;94.40;;;;;;5061603;28;20102;-64
2021/12/21 08:55:02;;;;;;;7.65;5.80;;;6.70;92.30;;;;;;5054234;28;20675;-63
2021/12/21 08:57:28;;;;;;;9.30;6.13;;;7.20;91.10;;;;;;5069765;28;20036;-63
2021/12/21 08:59:54;;;;;;;8.73;5.75;;;7.70;90.70;;;;;;5072391;28;20040;-63
2021/12/21 09:02:20;;;;;;;8.07;6.17;;;8.40;88.80;;;;;;5066359;28;20404;-63
2021/12/21 09:04:45;;;;;;;11.03;5.73;;;8.90;80.90;;;;;;5066992;28;20025;-62
2021/12/21 09:07:11;;;;;;;12.90;6.28;;;9.30;80.00;;;;;;5065414;28;20420;-63
2021/12/21 09:09:36;;;;;;;7.93;6.17;;;9.70;81.10;;;;;;5051692;28;20036;-63
2021/12/21 09:12:02;;;;;;;10.20;5.73;;;9.90;75.10;;;;;;5072705;28;20078;-63
2021/12/21 09:14:31;;;;;;;11.75;7.13;;;10.00;75.10;;;;;;5081417;28;20698;-62
2021/12/21 09:16:58;;;;;;;15.32;8.38;;;10.00;69.50;;;;;;5067622;28;20045;-63
2021/12/21 09:19:24;;;;;;;12.48;8.80;;;10.00;72.30;;;;;;5065831;28;20046;-62
2021/12/21 09:21:49;;;;;;;12.03;7.50;;;10.20;71.10;;;;;;5073408;28;20119;-61
2021/12/21 09:24:15;;;;;;;15.75;8.70;;;10.20;68.70;;;;;;5069790;28;20041;-61
2021/12/21 09:26:41;;;;;;;12.32;8.50;;;10.30;68.60;;;;;;5062931;28;20043;-62
2021/12/21 09:29:07;;;;;;;10.45;6.30;;;10.60;68.80;;;;;;5068857;28;20041;-64
2021/12/21 09:31:32;;;;;;;12.00;7.03;;;11.00;69.10;;;;;;5067764;28;20069;-62
2021/12/21 09:33:58;;;;;;;11.97;6.83;;;11.40;64.80;;;;;;5069788;28;20200;-62
2021/12/21 09:36:26;;;;;;;10.10;6.37;;;12.00;65.30;;;;;;5071425;28;20040;-63
2021/12/21 09:38:51;;;;;;;8.90;5.40;;;12.40;63.20;;;;;;5071318;28;20281;-62
2021/12/21 09:41:18;;;;;;;11.45;6.68;;;12.70;60.90;;;;;;5076413;28;20593;-63
2021/12/21 09:43:44;;;;;;;8.77;5.65;;;12.90;59.60;;;;;;5077840;28;20052;-62
2021/12/21 09:46:10;;;;;;;14.07;5.90;;;13.10;59.50;;;;;;5068797;28;20036;-62
2021/12/21 09:48:37;;;;;;;14.68;5.82;;;13.30;58.20;;;;;;5074051;28;20037;-62
2021/12/21 09:51:03;;;;;;;;;;;13.70;57.00;;;;;;5080619;28;20066;-61
2021/12/21 09:53:33;;;;;;;10.18;6.32;;;13.80;54.30;;;;;;5073747;28;19916;-62
2021/12/21 09:56:00;;;;;;;9.70;6.03;;;13.80;55.90;;;;;;5086464;28;20035;-62
2021/12/21 09:58:26;;;;;;;12.43;6.28;;;13.50;54.20;;;;;;5074678;28;20074;-62
2021/12/21 10:00:51;;;;;;;10.68;6.47;;;12.80;53.80;;;;;;5081507;28;20292;-64
2021/12/21 10:03:17;;;;;;;15.98;6.43;;;12.10;54.30;;;;;;5083147;28;20032;-61
2021/12/21 10:05:44;;;;;;;11.88;7.18;;;11.40;55.80;;;;;;5072738;28;20036;-63
2021/12/21 10:08:11;;;;;;;11.88;6.82;;;11.30;58.20;;;;;;5067961;28;20044;-61
2021/12/21 10:10:43;;;;;;;12.82;6.15;;;11.60;58.90;;;;;;5067482;28;20463;-62
2021/12/21 10:13:21;;;;;;;9.98;6.20;;;12.20;58.20;;;;;;5069921;28;20041;-62
2021/12/21 10:15:52;;;;;;;11.07;6.20;;;12.80;56.60;;;;;;5075450;28;20458;-59
2021/12/21 10:18:33;;;;;;;10.80;6.10;;;13.40;56.50;;;;;;5074564;28;20040;-61
2021/12/21 10:21:02;;;;;;;14.88;7.22;;;13.50;54.90;;;;;;5071692;28;20047;-61
2021/12/21 10:23:37;;;;;;;14.77;6.32;;;13.10;54.50;;;;;;5070595;28;20102;-63
2021/12/21 10:26:10;;;;;;;9.27;6.43;;;12.30;54.40;;;;;;5067987;28;20040;-62
2021/12/21 10:28:44;;;;;;;12.50;6.25;;;11.60;55.70;;;;;;5081200;28;20082;-62
2021/12/21 10:31:36;;;;;;;12.75;6.65;;;11.10;57.80;;;;;;5070096;28;20316;-62
2021/12/21 10:34:04;;;;;;;14.27;7.07;;;11.30;58.70;;;;;;5077750;28;20073;-62
2021/12/21 10:36:30;;;;;;;13.93;6.97;;;11.80;59.30;;;;;;5067653;28;20101;-62
2021/12/21 10:38:58;;;;;;;12.13;7.65;;;12.50;59.00;;;;;;5076865;28;20028;-63
2021/12/21 10:41:40;;;;;;;15.77;6.72;;;13.20;57.70;;;;;;5068207;28;20032;-60
2021/12/21 10:44:10;;;;;;;14.88;6.97;;;14.00;56.60;;;;;;5079440;28;20040;-60
2021/12/21 10:46:42;;;;;;;8.90;7.13;;;14.70;55.80;;;;;;5068848;28;20036;-60
2021/12/21 10:49:10;;;;;;;10.90;7.75;;;15.20;54.80;;;;;;5070463;28;20165;-60
2021/12/21 10:51:37;;;;;;;12.25;8.32;;;15.30;53.30;;;;;;5072591;28;20101;-61
2021/12/21 10:54:03;;;;;;;15.93;7.70;;;15.00;52.60;;;;;;5067900;28;20049;-60
2021/12/21 10:56:29;;;;;;;13.90;7.53;;;14.40;52.30;;;;;;5076587;28;20032;-60
2021/12/21 10:58:54;;;;;;;12.32;7.93;;;13.60;52.90;;;;;;5070919;28;20032;-60
2021/12/21 11:01:26;;;;;;;12.60;8.07;;;13.20;53.70;;;;;;5077862;28;20131;-59
2021/12/21 11:03:55;;;;;;;12.48;7.32;;;13.20;54.60;;;;;;5068558;28;20044;-62
2021/12/21 11:06:33;;;;;;;16.17;8.52;;;13.60;55.10;;;;;;5072765;28;20040;-62
2021/12/21 11:09:04;;;;;;;12.82;9.32;;;14.20;54.30;;;;;;5067994;28;20040;-63
2021/12/21 11:11:33;;;;;;;17.98;8.77;;;14.90;53.10;;;;;;5073803;28;20076;-62
2021/12/21 11:14:00;;;;;;;14.18;8.93;;;15.70;51.80;;;;;;5068032;28;20177;-60
2021/12/21 11:16:42;;;;;;;13.57;9.00;;;16.40;51.40;;;;;;5075527;28;20043;-60
2021/12/21 11:19:10;;;;;;;9.70;7.57;;;16.90;49.80;;;;;;5067342;28;20048;-60
2021/12/21 11:21:36;;;;;;;14.35;8.38;;;17.40;50.00;;;;;;5066657;28;20064;-60
2021/12/21 11:24:05;;;;;;;12.35;8.82;;;17.60;49.30;;;;;;5065496;28;20181;-60
2021/12/21 11:26:32;;;;;;;13.88;8.40;;;17.60;48.50;;;;;;5070124;28;20278;-59
2021/12/21 11:29:05;;;;;;;13.77;7.57;;;17.60;48.00;;;;;;5077736;28;20524;-60
2021/12/21 11:31:35;;;;;;;14.90;9.18;;;17.80;47.80;;;;;;5076188;28;20055;-61
2021/12/21 11:34:01;;;;;;;10.00;7.55;;;18.00;47.60;;;;;;5067975;28;20412;-60
2021/12/21 11:39:13;;;;;;;14.23;7.70;;;18.70;46.50;;;;;;5060345;28;20076;-61
2021/12/21 11:41:41;;;;;;;12.40;7.55;;;19.00;45.70;;;;;;5076928;28;20471;-60
2021/12/21 11:44:16;;;;;;;12.77;7.35;;;19.00;45.60;;;;;;5063302;28;20496;-60
2021/12/21 11:46:53;;;;;;;11.48;8.15;;;19.10;45.00;;;;;;5075819;28;20029;-60
2021/12/21 11:49:42;;;;;;;10.73;6.93;;;19.20;45.10;;;;;;5072483;28;20033;-60
2021/12/21 11:52:19;;;;;;;15.68;8.00;;;19.40;44.70;;;;;;5076206;28;20205;-61
2021/12/21 11:55:13;;;;;;;14.38;9.00;;;19.60;44.10;;;;;;5078135;28;20047;-61
2021/12/21 11:57:45;;;;;;;16.73;7.65;;;19.70;44.00;;;;;;5061299;28;20371;-60
2021/12/21 12:00:18;;;;;;;12.43;8.07;;;19.60;43.90;;;;;;5069367;28;20033;-59
2021/12/21 12:02:45;;;;;;;15.60;8.48;;;19.50;43.40;;;;;;5069085;28;20033;-60
2021/12/21 12:05:31;;;;;;;14.13;8.35;;;19.50;43.30;;;;;;5078791;28;20036;-60
2021/12/21 12:08:03;;;;;;;11.37;7.93;;;19.30;43.00;;;;;;5071297;28;20119;-60
2021/12/21 12:10:29;;;;;;;12.93;7.80;;;19.00;43.30;;;;;;5069595;28;20274;-60
2021/12/21 12:13:05;;;;;;;;;;;19.10;43.80;;;;;;5075478;28;20032;-59
2021/12/21 12:15:41;;;;;;;13.05;8.57;;;19.00;43.00;;;;;;5066803;28;19939;-60
2021/12/21 12:18:19;;;;;;;13.52;9.45;;;19.30;44.10;;;;;;5065852;28;20036;-60
2021/12/21 12:20:44;;;;;;;14.68;8.90;;;19.40;43.50;;;;;;5070525;28;20028;-59
2021/12/21 12:23:11;;;;;;;;;;;19.50;43.40;;;;;;5074664;28;20047;-60
2021/12/21 12:25:36;;;;;;;10.80;8.68;;;19.50;42.90;;;;;;5068272;28;20406;-60
2021/12/21 12:28:05;;;;;;;12.10;8.27;;;19.70;43.50;;;;;;5073060;28;20060;-60
2021/12/21 12:30:31;;;;;;;17.50;9.98;;;19.60;42.80;;;;;;5065565;28;20044;-60
2021/12/21 12:33:04;;;;;;;16.00;8.82;;;19.60;42.80;;;;;;5064332;28;20726;-60
2021/12/21 12:35:36;;;;;;;15.77;9.57;;;19.50;42.50;;;;;;5068137;28;20122;-61
2021/12/21 12:38:22;;;;;;;12.25;9.45;;;19.60;42.90;;;;;;5066160;28;20036;-60
2021/12/21 12:40:55;;;;;;;14.77;8.73;;;19.80;42.60;;;;;;5069379;28;20045;-60
2021/12/21 12:43:24;;;;;;;12.43;8.75;;;20.00;42.40;;;;;;5065095;28;20072;-61
2021/12/21 12:45:53;;;;;;;15.40;8.73;;;20.10;42.40;;;;;;5067293;28;20143;-61
2021/12/21 12:48:46;;;;;;;13.70;8.20;;;20.00;42.50;;;;;;5068035;28;20036;-60
2021/12/21 12:51:33;;;;;;;14.48;7.90;;;19.80;42.10;;;;;;5049707;28;20101;-61
2021/12/21 12:53:59;;;;;;;13.30;7.85;;;19.70;42.30;;;;;;5065178;28;20044;-60
2021/12/21 12:56:26;;;;;;;13.88;7.97;;;19.60;42.80;;;;;;5067215;28;20387;-60
2021/12/21 12:59:01;;;;;;;13.27;7.85;;;19.60;42.60;;;;;;5065121;28;20075;-60
2021/12/21 13:01:31;;;;;;;10.32;7.35;;;19.70;42.60;;;;;;5065780;28;20550;-61
2021/12/21 13:04:00;;;;;;;15.77;7.88;;;19.60;42.30;;;;;;5063819;28;20071;-62
2021/12/21 13:06:31;;;;;;;9.38;6.97;;;19.60;42.30;;;;;;5077754;28;20039;-61
2021/12/21 13:08:57;;;;;;;10.98;7.28;;;19.50;42.30;;;;;;5062252;28;20037;-61
2021/12/21 13:11:31;;;;;;;16.00;8.55;;;19.50;42.50;;;;;;5065765;28;20072;-62
2021/12/21 13:13:58;;;;;;;10.15;6.82;;;19.50;42.30;;;;;;5065083;28;20075;-61
2021/12/21 13:16:35;;;;;;;8.90;6.68;;;19.70;42.40;;;;;;5066395;28;20032;-61
2021/12/21 13:19:12;;;;;;;11.77;7.10;;;20.00;42.20;;;;;;5063365;28;20123;-61
2021/12/21 13:22:01;;;;;;;8.20;5.95;;;20.40;42.00;;;;;;5065974;28;20051;-61
2021/12/21 13:24:33;;;;;;;8.98;5.95;;;20.60;41.50;;;;;;5053554;28;20029;-62
2021/12/21 13:27:02;;;;;;;10.77;6.32;;;20.30;41.20;;;;;;5054603;28;20025;-61
2021/12/21 13:29:34;;;;;;;7.97;5.57;;;20.10;41.50;;;;;;5070593;28;20033;-61
2021/12/21 13:32:05;;;;;;;7.93;4.47;;;19.70;41.60;;;;;;5052964;28;20056;-61
2021/12/21 13:34:31;;;;;;;10.43;5.20;;;19.30;42.00;;;;;;5064619;28;20099;-61
2021/12/21 13:37:01;;;;;;;;;;;18.70;42.40;;;;;;5058046;28;20040;-60
2021/12/21 13:39:34;;;;;;;9.68;4.97;;;18.10;43.40;;;;;;5072437;28;19977;-61
2021/12/21 13:42:11;;;;;;;10.73;4.75;;;17.50;44.20;;;;;;5066416;28;20519;-60
2021/12/21 13:44:49;;;;;;;10.15;5.72;;;16.90;44.40;;;;;;5068187;28;20051;-61
2021/12/21 13:47:23;;;;;;;10.60;6.93;;;16.40;45.30;;;;;;5067115;28;20115;-60